createdAt,value
2023-01-23T00:00:29.281Z,77.02
2023-01-23T00:04:59.360Z,77.14
2023-01-23T00:09:29.439Z,77.09
2023-01-23T00:17:39.603Z,77.18
2023-01-23T00:22:08.566Z,77.00
2023-01-23T00:26:30.690Z,77.20
2023-01-23T00:50:35.930Z,76.96
2023-01-23T00:55:05.442Z,76.90
2023-01-23T00:59:34.354Z,76.86
2023-01-23T01:03:45.256Z,77.09
2023-01-23T01:08:14.916Z,76.88
2023-01-23T01:29:14.571Z,76.75
2023-01-23T01:33:43.445Z,76.93
2023-01-23T01:38:11.288Z,76.99
2023-01-23T01:42:25.501Z,76.48
2023-01-23T02:04:00.893Z,76.40
2023-01-23T02:08:39.043Z,76.32
2023-01-23T02:13:08.484Z,76.64
2023-01-23T02:17:27.481Z,76.44
2023-01-23T02:21:56.930Z,76.56
2023-01-23T02:40:09.602Z,76.13
2023-01-23T02:44:28.638Z,76.28
2023-01-23T02:48:59.110Z,76.23
2023-01-23T03:10:08.403Z,76.23
2023-01-23T03:14:36.007Z,76.13
2023-01-23T03:18:58.521Z,75.86
2023-01-23T03:40:21.584Z,76.07
2023-01-23T03:44:51.278Z,76.13
2023-01-23T03:49:20.294Z,76.02
2023-01-23T04:23:30.328Z,75.88
2023-01-23T04:27:59.228Z,75.81
2023-01-23T04:32:20.870Z,75.67
2023-01-23T04:40:36.328Z,75.71
2023-01-23T04:45:05.459Z,75.58
2023-01-23T05:08:24.861Z,75.54
2023-01-23T05:12:53.735Z,75.58
2023-01-23T05:17:03.109Z,75.67
2023-01-23T05:21:33.567Z,75.62
2023-01-23T05:38:11.730Z,75.76
2023-01-23T05:42:41.401Z,75.54
2023-01-23T05:47:26.163Z,75.73
2023-01-23T05:51:56.008Z,75.38
2023-01-23T06:17:42.807Z,75.51
2023-01-23T06:21:31.644Z,75.29
2023-01-23T06:24:53.267Z,75.22
2023-01-23T06:29:11.700Z,75.38
2023-01-23T06:33:12.492Z,75.40
2023-01-23T06:37:41.840Z,75.64
2023-01-23T06:41:30.075Z,75.61
2023-01-23T06:45:54.637Z,75.57
2023-01-23T06:49:28.319Z,75.49
2023-01-23T06:53:07.723Z,75.21
2023-01-23T06:57:37.734Z,75.66
2023-01-23T07:01:55.257Z,75.74
2023-01-23T07:05:56.087Z,75.41
2023-01-23T07:14:21.012Z,75.53
2023-01-23T07:17:41.047Z,75.26
2023-01-23T07:20:39.140Z,75.51
2023-01-23T07:24:28.870Z,75.51
2023-01-23T07:28:26.957Z,75.37
2023-01-23T07:31:37.847Z,75.33
2023-01-23T07:35:28.143Z,75.27
2023-01-23T07:39:02.421Z,75.53
2023-01-23T07:42:28.039Z,75.46
2023-01-23T07:45:33.960Z,75.49
2023-01-23T07:49:11.303Z,75.43
2023-01-23T07:52:23.338Z,75.32
2023-01-23T07:55:53.998Z,75.34
2023-01-23T07:59:52.553Z,75.31
2023-01-23T08:03:32.635Z,75.22
2023-01-23T08:07:42.032Z,75.41
2023-01-23T08:11:39.342Z,75.35
2023-01-23T08:19:43.465Z,75.75
2023-01-23T08:27:20.760Z,75.75
2023-01-23T08:43:48.466Z,75.38
2023-01-23T08:46:49.264Z,75.24
2023-01-23T08:50:53.508Z,75.35
2023-01-23T08:54:58.765Z,75.27
2023-01-23T08:59:28.199Z,75.15
2023-01-23T09:03:37.704Z,75.32
2023-01-23T09:07:32.023Z,75.67
2023-01-23T09:10:57.636Z,75.44
2023-01-23T09:14:47.584Z,75.34
2023-01-23T09:18:33.751Z,75.10
2023-01-23T09:21:34.164Z,75.12
2023-01-23T09:25:11.937Z,75.21
2023-01-23T09:29:16.176Z,75.15
2023-01-23T09:32:54.723Z,75.14
2023-01-23T09:35:52.995Z,74.96
2023-01-23T09:39:05.266Z,75.03
2023-01-23T09:42:37.636Z,74.70
2023-01-23T09:46:26.975Z,74.94
2023-01-23T09:50:00.628Z,74.88
2023-01-23T09:54:03.790Z,74.72
2023-01-23T10:01:48.896Z,74.80
2023-01-23T10:05:17.390Z,74.77
2023-01-23T10:09:40.448Z,74.77
2023-01-23T10:13:59.113Z,74.95
2023-01-23T10:27:00.853Z,74.58
2023-01-23T10:31:07.044Z,74.31
2023-01-23T10:54:08.504Z,74.22
2023-01-23T10:58:00.252Z,73.76
2023-01-23T11:02:14.495Z,74.03
2023-01-23T11:06:21.155Z,73.93
2023-01-23T11:10:48.510Z,73.61
2023-01-23T11:18:26.202Z,73.63
2023-01-23T11:23:06.111Z,73.34
2023-01-23T11:26:35.712Z,73.31
2023-01-23T11:30:37.133Z,73.35
2023-01-23T11:34:48.498Z,73.33
2023-01-23T11:38:53.013Z,73.22
2023-01-23T11:42:11.575Z,73.19
2023-01-23T11:46:50.936Z,72.87
2023-01-23T11:50:56.201Z,72.89
2023-01-23T11:55:23.014Z,72.89
2023-01-23T11:59:42.276Z,72.74
2023-01-23T12:04:05.533Z,72.81
2023-01-23T12:13:25.275Z,72.43
2023-01-23T12:40:02.954Z,72.46
2023-01-23T12:44:42.257Z,72.23
2023-01-23T12:48:58.637Z,72.01
2023-01-23T12:53:30.250Z,71.96
2023-01-23T12:58:08.988Z,71.70
2023-01-23T13:07:45.067Z,71.88
2023-01-23T13:12:21.307Z,71.61
2023-01-23T13:16:45.829Z,71.47
2023-01-23T13:21:31.631Z,71.36
2023-01-23T13:25:55.290Z,71.24
2023-01-23T13:30:24.017Z,71.48
2023-01-23T13:34:59.053Z,71.06
2023-01-23T14:46:55.292Z,70.95
2023-01-23T14:51:24.901Z,70.81
2023-01-23T14:56:02.321Z,70.67
2023-01-23T15:04:38.166Z,71.01
2023-01-23T15:09:07.673Z,71.23
2023-01-23T15:35:16.613Z,71.02
2023-01-23T15:39:48.792Z,70.72
2023-01-23T15:44:08.897Z,71.03
2023-01-23T16:06:34.056Z,71.00
2023-01-23T16:10:56.554Z,71.31
2023-01-23T16:15:25.929Z,71.04
2023-01-23T16:19:55.521Z,70.71
2023-01-23T17:06:59.214Z,70.52
2023-01-23T17:11:28.628Z,70.51
2023-01-23T17:16:18.580Z,70.72
2023-01-23T17:37:19.826Z,70.18
2023-01-23T17:41:55.111Z,70.32
2023-01-23T17:46:24.844Z,69.89
2023-01-23T17:50:57.793Z,70.22
2023-01-23T17:55:13.487Z,70.17
2023-01-23T18:21:34.356Z,69.82
2023-01-23T18:25:54.403Z,69.91
2023-01-23T18:43:58.165Z,69.75
2023-01-23T18:48:24.273Z,69.67
2023-01-23T18:52:58.234Z,69.87
2023-01-23T18:57:30.188Z,69.47
2023-01-23T19:02:15.109Z,69.91
2023-01-23T19:23:37.442Z,69.48
2023-01-23T19:28:05.527Z,69.87
2023-01-23T19:32:17.572Z,69.61
2023-01-23T19:41:38.556Z,69.77
2023-01-23T19:45:38.622Z,69.75
2023-01-23T19:50:08.012Z,69.86
2023-01-23T19:54:27.932Z,69.49
2023-01-23T20:17:09.336Z,69.99
2023-01-23T20:21:38.936Z,69.70
2023-01-23T20:26:08.435Z,69.59
2023-01-23T20:30:33.029Z,69.83
2023-01-23T21:00:43.193Z,69.91
2023-01-23T21:05:12.593Z,69.73
2023-01-23T21:09:41.809Z,69.95
2023-01-23T21:14:03.280Z,70.06
2023-01-23T21:18:31.517Z,69.77
2023-01-23T21:22:48.370Z,70.04
2023-01-23T21:44:34.597Z,69.90
2023-01-23T21:49:05.155Z,70.05
2023-01-23T21:53:34.390Z,70.19
2023-01-23T22:16:12.213Z,70.06
2023-01-23T22:20:24.605Z,70.05
2023-01-23T22:24:54.794Z,69.66
2023-01-23T22:41:53.401Z,70.44
2023-01-23T22:46:13.998Z,70.30
2023-01-23T22:50:44.618Z,69.93
2023-01-23T22:55:12.964Z,69.80
2023-01-23T22:59:18.462Z,70.07
2023-01-23T23:07:34.200Z,69.82
2023-01-23T23:11:28.062Z,69.86
2023-01-23T23:15:57.597Z,70.05
2023-01-23T23:20:26.551Z,69.94
2023-01-23T23:24:37.203Z,70.13
2023-01-23T23:46:11.425Z,69.89
2023-01-23T23:50:30.879Z,70.35
2023-01-23T23:55:00.720Z,70.36
